Rechercher aéroport 
image banner adimage banner adimage banner ad
image banner ad

KAPC - Napa County

Situé à Napa, United States

ICAO - APC, IATA - APC

Données fournies par Airmate  

Information générale

Coordonnées: N38°12'47" W122°16'50"
Élévation : 36 feet MSL.
Variation magnétique : 15° East
Voir autres Aéroports à California

Données opérationnelles

Special qualification required
Heure actuelle UTC:
Heure actuelle locale:
Météo
METAR: KAPC 262354Z 19020KT 10SM CLR 19/13 A2990 RMK AO2 SLP116 T01890128 10211 20178 55005
TAF: KAPC 262340Z 2700/2724 20015KT P6SM SCT200 FM270100 20015KT P6SM BKN200 FM270700 25010KT P6SM BKN012 BKN100 FM271000 24008KT P6SM VCSH OVC009 FM271630 VRB05KT P6SM SCT012 SCT100 FM271900 20013KT P6SM FEW100 SCT200
Voir NOTAMs / SUP AIP / TFR affectant cet aéroport [VIEW]
Fréquences de communication: [VIEW]

Pistes:

Identifiant RWYQFULongueur (ft)Largeur (ft)SurfaceLDA (ft)
0677°5008150CONC
24257°5008150CONC
01L21°5930150ASPH
19R201°5930150ASPH
01R21°251075ASPH
19L201°251075ASPH

Coordonnées de l'aéroport

Adresse: Napa United States

Autres services d'aviation

Écoles de pilotage

Napa Jet Center

Napa Jet Center

Vue satellite de KAPC